TJBQ/BQN METAR and TAF weather

Enter ICAO airport designator
Station Type Date Time Source
TJBQ METAR 2020/01/23 23:50 UTC NOAA

TJBQ 232350Z 01004KT 10SM SCT018 SCT032 OVC060 24/ A2990


Station Type Date Time Source
TJBQ Decoded METAR 2020/01/23 23:50 UTC NOAA

Aquadilla, Rafael Hernandez Airport, PR, United States (TJBQ) 18-30N 067-08W 69M
Jan 23, 2020 - 06:50 PM EST / 2020.01.23 2350 UTC
Wind: from the N (010 degrees) at 5 MPH (4 KT):0
Visibility: 10 mile(s):0
Sky conditions: overcast
Temperature: 75 F (24 C)
Pressure (altimeter): 29.9 in. Hg (1012 hPa)
ob: TJBQ 232350Z 01004KT 10SM SCT018 SCT032 OVC060 24/ A2990
cycle: 0

Station Type Date Time Source
TJBQ TAF 2020/01/23 18:45 UTC NOAA

TAF TJBQ 231739Z 2318/2418 26014KT P6SM VCSH FEW026 SCT040
FM232200 35012KT P6SM VCSH FEW026 SCT040
FM241700 03009KT P6SM VCSH SCT040
AMD NOT SKED

Example: see airport list